Terminal Aerodrome Forecast
Issued by NWS

Home | Current Version | Previous Version | Text Only | Print | Product List | Glossary Off
Versions: 1 2 3 4 5 6 7 8 9 10 11 12 13 14 15

000
FTUS43 KGRB 271137
TAFCWA
TAF
KCWA 271137Z 2712/2812 19004KT 6SM BR SCT040 SCT080
      TEMPO 2712/2713 3SM BR BKN025
     FM271300 21005KT P6SM SCT015 SCT040
     FM271600 25008KT P6SM SCT050 SCT090
     FM272300 28006KT P6SM SCT035 BKN080 PROB30 2806/2812 3SM -SHRA
      BKN035=

USA.gov is the U.S. government's official web portal to all federal, state and local government web resources and services.